<?xml version="1.0" encoding="UTF-8" standalone="no" ?><gpx xmlns="http://www.topografix.com/GPX/1/1" xmlns:gpxx="http://www.garmin.com/xmlschemas/GpxExtensions/v3" xmlns:gpxtpx="http://www.garmin.com/xmlschemas/TrackPointExtension/v1" creator="Foretrex 301" version="1.1" xmlns:xsi="http://www.w3.org/2001/XMLSchema-instance" xsi:schemaLocation="http://www.topografix.com/GPX/1/1 http://www.topografix.com/GPX/1/1/gpx.xsd http://www.garmin.com/xmlschemas/GpxExtensions/v3 http://www.garmin.com/xmlschemas/GpxExtensions/v3/GpxExtensionsv3.xsd"><metadata><link href="http://www.garmin.com"><text>Garmin International</text></link><time>2011-02-23T14:36:22Z</time></metadata><trk><name>ACTIVE LOG: 23 FEB 2011 09:49</name><trkseg><trkpt lat="51.921134" lon="-1.862295"><ele>229.89</ele><time>2011-02-23T09:49:37Z</time></trkpt><trkpt lat="51.921116" lon="-1.862760"><ele>216.91</ele><time>2011-02-23T09:50:39Z</time></trkpt><trkpt lat="51.921131" lon="-1.862913"><ele>209.22</ele><time>2011-02-23T09:51:10Z</time></trkpt><trkpt lat="51.921141" lon="-1.862946"><ele>209.22</ele><time>2011-02-23T09:51:39Z</time></trkpt><trkpt lat="51.921205" lon="-1.863077"><ele>196.73</ele><time>2011-02-23T09:52:14Z</time></trkpt><trkpt lat="51.921231" lon="-1.863184"><ele>191.44</ele><time>2011-02-23T09:52:36Z</time></trkpt><trkpt lat="51.921235" lon="-1.863186"><ele>190.48</ele><time>2011-02-23T09:53:31Z</time></trkpt><trkpt lat="51.921252" lon="-1.863227"><ele>187.11</ele><time>2011-02-23T09:53:54Z</time></trkpt><trkpt lat="51.921265" lon="-1.863250"><ele>184.23</ele><time>2011-02-23T09:54:23Z</time></trkpt><trkpt lat="51.921267" lon="-1.863256"><ele>183.75</ele><time>2011-02-23T09:55:22Z</time></trkpt><trkpt lat="51.921268" lon="-1.863268"><ele>183.27</ele><time>2011-02-23T09:57:37Z</time></trkpt><trkpt lat="51.921270" lon="-1.863275"><ele>182.79</ele><time>2011-02-23T09:59:06Z</time></trkpt><trkpt lat="51.921281" lon="-1.863302"><ele>182.79</ele><time>2011-02-23T09:59:57Z</time></trkpt><trkpt lat="51.921265" lon="-1.863362"><ele>180.38</ele><time>2011-02-23T10:00:46Z</time></trkpt><trkpt lat="51.921242" lon="-1.863434"><ele>179.90</ele><time>2011-02-23T10:00:50Z</time></trkpt><trkpt lat="51.921249" lon="-1.863724"><ele>177.50</ele><time>2011-02-23T10:01:06Z</time></trkpt><trkpt lat="51.921274" lon="-1.863879"><ele>176.54</ele><time>2011-02-23T10:01:15Z</time></trkpt><trkpt lat="51.921285" lon="-1.863959"><ele>176.54</ele><time>2011-02-23T10:01:20Z</time></trkpt><trkpt lat="51.921302" lon="-1.864005"><ele>176.54</ele><time>2011-02-23T10:01:23Z</time></trkpt><trkpt lat="51.921240" lon="-1.864129"><ele>175.58</ele><time>2011-02-23T10:01:36Z</time></trkpt><trkpt lat="51.921054" lon="-1.863968"><ele>177.02</ele><time>2011-02-23T10:01:54Z</time></trkpt><trkpt lat="51.920886" lon="-1.863831"><ele>178.46</ele><time>2011-02-23T10:02:11Z</time></trkpt><trkpt lat="51.920698" lon="-1.863637"><ele>179.42</ele><time>2011-02-23T10:02:30Z</time></trkpt><trkpt lat="51.920501" lon="-1.863451"><ele>180.38</ele><time>2011-02-23T10:02:51Z</time></trkpt><trkpt lat="51.920348" lon="-1.863313"><ele>179.42</ele><time>2011-02-23T10:03:07Z</time></trkpt><trkpt lat="51.920225" lon="-1.863214"><ele>177.98</ele><time>2011-02-23T10:03:22Z</time></trkpt><trkpt lat="51.920036" lon="-1.863083"><ele>176.54</ele><time>2011-02-23T10:03:39Z</time></trkpt><trkpt lat="51.919863" lon="-1.862985"><ele>176.06</ele><time>2011-02-23T10:03:56Z</time></trkpt><trkpt lat="51.919652" lon="-1.862904"><ele>176.54</ele><time>2011-02-23T10:04:16Z</time></trkpt><trkpt lat="51.919481" lon="-1.862829"><ele>177.02</ele><time>2011-02-23T10:04:33Z</time></trkpt><trkpt lat="51.919350" lon="-1.862813"><ele>177.02</ele><time>2011-02-23T10:04:51Z</time></trkpt><trkpt lat="51.919293" lon="-1.862826"><ele>177.02</ele><time>2011-02-23T10:05:05Z</time></trkpt><trkpt lat="51.919231" lon="-1.862803"><ele>177.02</ele><time>2011-02-23T10:05:17Z</time></trkpt><trkpt lat="51.919207" lon="-1.862781"><ele>177.50</ele><time>2011-02-23T10:05:39Z</time></trkpt><trkpt lat="51.919003" lon="-1.862804"><ele>176.54</ele><time>2011-02-23T10:06:00Z</time></trkpt><trkpt lat="51.918827" lon="-1.862798"><ele>175.10</ele><time>2011-02-23T10:06:18Z</time></trkpt><trkpt lat="51.918677" lon="-1.862798"><ele>174.14</ele><time>2011-02-23T10:06:35Z</time></trkpt><trkpt lat="51.918497" lon="-1.862820"><ele>172.69</ele><time>2011-02-23T10:06:54Z</time></trkpt><trkpt lat="51.918339" lon="-1.862851"><ele>171.73</ele><time>2011-02-23T10:07:11Z</time></trkpt><trkpt lat="51.918201" lon="-1.862877"><ele>171.25</ele><time>2011-02-23T10:07:30Z</time></trkpt><trkpt lat="51.918205" lon="-1.862873"><ele>170.77</ele><time>2011-02-23T10:07:44Z</time></trkpt><trkpt lat="51.918201" lon="-1.862846"><ele>170.29</ele><time>2011-02-23T10:07:56Z</time></trkpt><trkpt lat="51.918171" lon="-1.862874"><ele>168.85</ele><time>2011-02-23T10:08:02Z</time></trkpt><trkpt lat="51.918099" lon="-1.862809"><ele>168.37</ele><time>2011-02-23T10:08:14Z</time></trkpt><trkpt lat="51.917953" lon="-1.862627"><ele>166.45</ele><time>2011-02-23T10:08:33Z</time></trkpt><trkpt lat="51.917814" lon="-1.862422"><ele>166.45</ele><time>2011-02-23T10:08:53Z</time></trkpt><trkpt lat="51.917762" lon="-1.862336"><ele>165.96</ele><time>2011-02-23T10:09:01Z</time></trkpt><trkpt lat="51.917643" lon="-1.862165"><ele>165.96</ele><time>2011-02-23T10:09:18Z</time></trkpt><trkpt lat="51.917500" lon="-1.861968"><ele>166.45</ele><time>2011-02-23T10:09:38Z</time></trkpt><trkpt lat="51.917397" lon="-1.861811"><ele>166.45</ele><time>2011-02-23T10:09:54Z</time></trkpt><trkpt lat="51.917306" lon="-1.861689"><ele>167.41</ele><time>2011-02-23T10:10:10Z</time></trkpt><trkpt lat="51.917226" lon="-1.861571"><ele>168.37</ele><time>2011-02-23T10:10:25Z</time></trkpt><trkpt lat="51.917143" lon="-1.861440"><ele>169.33</ele><time>2011-02-23T10:10:39Z</time></trkpt><trkpt lat="51.917050" lon="-1.861307"><ele>169.81</ele><time>2011-02-23T10:10:53Z</time></trkpt><trkpt lat="51.916937" lon="-1.861131"><ele>170.29</ele><time>2011-02-23T10:11:10Z</time></trkpt><trkpt lat="51.916840" lon="-1.860989"><ele>170.29</ele><time>2011-02-23T10:11:26Z</time></trkpt><trkpt lat="51.916795" lon="-1.860935"><ele>170.29</ele><time>2011-02-23T10:11:33Z</time></trkpt><trkpt lat="51.916710" lon="-1.860770"><ele>169.33</ele><time>2011-02-23T10:11:48Z</time></trkpt><trkpt lat="51.916600" lon="-1.860636"><ele>169.33</ele><time>2011-02-23T10:12:05Z</time></trkpt><trkpt lat="51.916527" lon="-1.860544"><ele>168.37</ele><time>2011-02-23T10:12:18Z</time></trkpt><trkpt lat="51.916460" lon="-1.860443"><ele>168.37</ele><time>2011-02-23T10:12:32Z</time></trkpt><trkpt lat="51.916395" lon="-1.860322"><ele>167.41</ele><time>2011-02-23T10:12:45Z</time></trkpt><trkpt lat="51.916277" lon="-1.860126"><ele>165.96</ele><time>2011-02-23T10:13:04Z</time></trkpt><trkpt lat="51.916188" lon="-1.859987"><ele>164.52</ele><time>2011-02-23T10:13:20Z</time></trkpt><trkpt lat="51.916112" lon="-1.859887"><ele>162.60</ele><time>2011-02-23T10:13:35Z</time></trkpt><trkpt lat="51.916044" lon="-1.859829"><ele>161.16</ele><time>2011-02-23T10:13:49Z</time></trkpt><trkpt lat="51.916031" lon="-1.859832"><ele>161.64</ele><time>2011-02-23T10:14:08Z</time></trkpt><trkpt lat="51.916022" lon="-1.859756"><ele>161.64</ele><time>2011-02-23T10:14:22Z</time></trkpt><trkpt lat="51.915989" lon="-1.859758"><ele>160.20</ele><time>2011-02-23T10:14:31Z</time></trkpt><trkpt lat="51.915931" lon="-1.859721"><ele>159.24</ele><time>2011-02-23T10:14:46Z</time></trkpt><trkpt lat="51.915855" lon="-1.859677"><ele>156.83</ele><time>2011-02-23T10:15:02Z</time></trkpt><trkpt lat="51.915850" lon="-1.859655"><ele>157.31</ele><time>2011-02-23T10:15:11Z</time></trkpt><trkpt lat="51.915787" lon="-1.859524"><ele>158.27</ele><time>2011-02-23T10:15:26Z</time></trkpt><trkpt lat="51.915773" lon="-1.859485"><ele>158.27</ele><time>2011-02-23T10:15:29Z</time></trkpt><trkpt lat="51.915729" lon="-1.859336"><ele>160.20</ele><time>2011-02-23T10:15:41Z</time></trkpt><trkpt lat="51.915696" lon="-1.859250"><ele>161.16</ele><time>2011-02-23T10:15:49Z</time></trkpt><trkpt lat="51.915640" lon="-1.859201"><ele>162.60</ele><time>2011-02-23T10:16:00Z</time></trkpt><trkpt lat="51.915597" lon="-1.859082"><ele>165.00</ele><time>2011-02-23T10:16:13Z</time></trkpt><trkpt lat="51.915573" lon="-1.858987"><ele>167.89</ele><time>2011-02-23T10:16:27Z</time></trkpt><trkpt lat="51.915536" lon="-1.858935"><ele>168.85</ele><time>2011-02-23T10:16:38Z</time></trkpt><trkpt lat="51.915482" lon="-1.858899"><ele>170.29</ele><time>2011-02-23T10:16:54Z</time></trkpt><trkpt lat="51.915475" lon="-1.858907"><ele>168.85</ele><time>2011-02-23T10:17:10Z</time></trkpt><trkpt lat="51.915460" lon="-1.858902"><ele>168.85</ele><time>2011-02-23T10:17:25Z</time></trkpt><trkpt lat="51.915432" lon="-1.858818"><ele>169.33</ele><time>2011-02-23T10:17:40Z</time></trkpt><trkpt lat="51.915419" lon="-1.858749"><ele>169.81</ele><time>2011-02-23T10:17:52Z</time></trkpt><trkpt lat="51.915313" lon="-1.858636"><ele>170.29</ele><time>2011-02-23T10:18:07Z</time></trkpt><trkpt lat="51.915216" lon="-1.858472"><ele>170.77</ele><time>2011-02-23T10:18:24Z</time></trkpt><trkpt lat="51.915138" lon="-1.858349"><ele>171.73</ele><time>2011-02-23T10:18:39Z</time></trkpt><trkpt lat="51.915060" lon="-1.858195"><ele>171.73</ele><time>2011-02-23T10:18:55Z</time></trkpt><trkpt lat="51.914990" lon="-1.858094"><ele>171.73</ele><time>2011-02-23T10:19:08Z</time></trkpt><trkpt lat="51.914927" lon="-1.857993"><ele>171.73</ele><time>2011-02-23T10:19:21Z</time></trkpt><trkpt lat="51.914867" lon="-1.857888"><ele>172.69</ele><time>2011-02-23T10:19:34Z</time></trkpt><trkpt lat="51.914808" lon="-1.857793"><ele>173.17</ele><time>2011-02-23T10:19:47Z</time></trkpt><trkpt lat="51.914741" lon="-1.857669"><ele>173.17</ele><time>2011-02-23T10:20:01Z</time></trkpt><trkpt lat="51.914660" lon="-1.857518"><ele>173.66</ele><time>2011-02-23T10:20:16Z</time></trkpt><trkpt lat="51.914581" lon="-1.857392"><ele>173.66</ele><time>2011-02-23T10:20:30Z</time></trkpt><trkpt lat="51.914528" lon="-1.857304"><ele>173.66</ele><time>2011-02-23T10:20:42Z</time></trkpt><trkpt lat="51.914470" lon="-1.857196"><ele>174.14</ele><time>2011-02-23T10:20:54Z</time></trkpt><trkpt lat="51.914423" lon="-1.857092"><ele>174.62</ele><time>2011-02-23T10:21:08Z</time></trkpt><trkpt lat="51.914364" lon="-1.856987"><ele>174.14</ele><time>2011-02-23T10:21:20Z</time></trkpt><trkpt lat="51.914315" lon="-1.856908"><ele>174.62</ele><time>2011-02-23T10:21:32Z</time></trkpt><trkpt lat="51.914257" lon="-1.856815"><ele>175.10</ele><time>2011-02-23T10:21:44Z</time></trkpt><trkpt lat="51.914186" lon="-1.856698"><ele>174.62</ele><time>2011-02-23T10:21:58Z</time></trkpt><trkpt lat="51.914126" lon="-1.856584"><ele>175.10</ele><time>2011-02-23T10:22:11Z</time></trkpt><trkpt lat="51.914075" lon="-1.856470"><ele>175.58</ele><time>2011-02-23T10:22:24Z</time></trkpt><trkpt lat="51.914028" lon="-1.856324"><ele>177.02</ele><time>2011-02-23T10:22:38Z</time></trkpt><trkpt lat="51.913959" lon="-1.856162"><ele>177.50</ele><time>2011-02-23T10:22:52Z</time></trkpt><trkpt lat="51.913887" lon="-1.856002"><ele>178.46</ele><time>2011-02-23T10:23:06Z</time></trkpt><trkpt lat="51.913815" lon="-1.855847"><ele>178.46</ele><time>2011-02-23T10:23:20Z</time></trkpt><trkpt lat="51.913733" lon="-1.855671"><ele>178.46</ele><time>2011-02-23T10:23:35Z</time></trkpt><trkpt lat="51.913649" lon="-1.855477"><ele>179.42</ele><time>2011-02-23T10:23:51Z</time></trkpt><trkpt lat="51.913568" lon="-1.855315"><ele>179.42</ele><time>2011-02-23T10:24:05Z</time></trkpt><trkpt lat="51.913485" lon="-1.855165"><ele>179.42</ele><time>2011-02-23T10:24:18Z</time></trkpt><trkpt lat="51.913392" lon="-1.855006"><ele>179.42</ele><time>2011-02-23T10:24:33Z</time></trkpt><trkpt lat="51.913281" lon="-1.854816"><ele>178.46</ele><time>2011-02-23T10:24:50Z</time></trkpt><trkpt lat="51.913231" lon="-1.854707"><ele>178.46</ele><time>2011-02-23T10:25:03Z</time></trkpt><trkpt lat="51.913188" lon="-1.854609"><ele>179.90</ele><time>2011-02-23T10:25:15Z</time></trkpt><trkpt lat="51.913143" lon="-1.854479"><ele>179.90</ele><time>2011-02-23T10:25:28Z</time></trkpt><trkpt lat="51.913074" lon="-1.854307"><ele>180.38</ele><time>2011-02-23T10:25:43Z</time></trkpt><trkpt lat="51.913002" lon="-1.854151"><ele>180.38</ele><time>2011-02-23T10:25:57Z</time></trkpt><trkpt lat="51.912932" lon="-1.853983"><ele>180.38</ele><time>2011-02-23T10:26:11Z</time></trkpt><trkpt lat="51.912855" lon="-1.853820"><ele>180.38</ele><time>2011-02-23T10:26:24Z</time></trkpt><trkpt lat="51.912779" lon="-1.853642"><ele>178.94</ele><time>2011-02-23T10:26:39Z</time></trkpt><trkpt lat="51.912727" lon="-1.853491"><ele>177.98</ele><time>2011-02-23T10:26:53Z</time></trkpt><trkpt lat="51.912682" lon="-1.853345"><ele>177.98</ele><time>2011-02-23T10:27:05Z</time></trkpt><trkpt lat="51.912635" lon="-1.853260"><ele>177.98</ele><time>2011-02-23T10:27:16Z</time></trkpt><trkpt lat="51.912614" lon="-1.853250"><ele>177.02</ele><time>2011-02-23T10:27:32Z</time></trkpt><trkpt lat="51.912607" lon="-1.853185"><ele>175.58</ele><time>2011-02-23T10:27:50Z</time></trkpt><trkpt lat="51.912600" lon="-1.853136"><ele>175.10</ele><time>2011-02-23T10:28:06Z</time></trkpt><trkpt lat="51.912567" lon="-1.853054"><ele>177.02</ele><time>2011-02-23T10:28:19Z</time></trkpt><trkpt lat="51.912523" lon="-1.852904"><ele>179.90</ele><time>2011-02-23T10:28:31Z</time></trkpt><trkpt lat="51.912404" lon="-1.852719"><ele>183.75</ele><time>2011-02-23T10:28:56Z</time></trkpt><trkpt lat="51.912304" lon="-1.852531"><ele>180.38</ele><time>2011-02-23T10:29:11Z</time></trkpt><trkpt lat="51.912214" lon="-1.852430"><ele>183.75</ele><time>2011-02-23T10:29:26Z</time></trkpt><trkpt lat="51.912102" lon="-1.852270"><ele>180.87</ele><time>2011-02-23T10:29:46Z</time></trkpt><trkpt lat="51.911919" lon="-1.852146"><ele>180.38</ele><time>2011-02-23T10:30:07Z</time></trkpt><trkpt lat="51.911856" lon="-1.852104"><ele>182.31</ele><time>2011-02-23T10:30:20Z</time></trkpt><trkpt lat="51.911783" lon="-1.852043"><ele>183.27</ele><time>2011-02-23T10:30:31Z</time></trkpt><trkpt lat="51.911613" lon="-1.851908"><ele>184.23</ele><time>2011-02-23T10:30:48Z</time></trkpt><trkpt lat="51.911478" lon="-1.851789"><ele>185.19</ele><time>2011-02-23T10:31:04Z</time></trkpt><trkpt lat="51.911472" lon="-1.851786"><ele>185.19</ele><time>2011-02-23T10:31:05Z</time></trkpt><trkpt lat="51.911365" lon="-1.851694"><ele>186.15</ele><time>2011-02-23T10:31:19Z</time></trkpt><trkpt lat="51.911348" lon="-1.851682"><ele>186.15</ele><time>2011-02-23T10:31:21Z</time></trkpt><trkpt lat="51.911287" lon="-1.851545"><ele>186.15</ele><time>2011-02-23T10:31:35Z</time></trkpt><trkpt lat="51.911278" lon="-1.851515"><ele>186.15</ele><time>2011-02-23T10:31:47Z</time></trkpt><trkpt lat="51.911278" lon="-1.851513"><ele>185.67</ele><time>2011-02-23T10:31:48Z</time></trkpt><trkpt lat="51.911302" lon="-1.851378"><ele>184.71</ele><time>2011-02-23T10:32:00Z</time></trkpt><trkpt lat="51.911205" lon="-1.851232"><ele>184.23</ele><time>2011-02-23T10:32:14Z</time></trkpt><trkpt lat="51.911096" lon="-1.851068"><ele>184.23</ele><time>2011-02-23T10:32:29Z</time></trkpt><trkpt lat="51.910978" lon="-1.850888"><ele>182.79</ele><time>2011-02-23T10:32:46Z</time></trkpt><trkpt lat="51.910856" lon="-1.850672"><ele>181.83</ele><time>2011-02-23T10:33:04Z</time></trkpt><trkpt lat="51.910777" lon="-1.850506"><ele>180.38</ele><time>2011-02-23T10:33:19Z</time></trkpt><trkpt lat="51.910694" lon="-1.850272"><ele>178.94</ele><time>2011-02-23T10:33:37Z</time></trkpt><trkpt lat="51.910678" lon="-1.850222"><ele>179.42</ele><time>2011-02-23T10:33:41Z</time></trkpt><trkpt lat="51.910608" lon="-1.850018"><ele>180.87</ele><time>2011-02-23T10:33:57Z</time></trkpt><trkpt lat="51.910556" lon="-1.849909"><ele>181.83</ele><time>2011-02-23T10:34:10Z</time></trkpt><trkpt lat="51.910509" lon="-1.849786"><ele>182.31</ele><time>2011-02-23T10:34:22Z</time></trkpt><trkpt lat="51.910440" lon="-1.849609"><ele>183.75</ele><time>2011-02-23T10:34:37Z</time></trkpt><trkpt lat="51.910375" lon="-1.849410"><ele>185.19</ele><time>2011-02-23T10:34:52Z</time></trkpt><trkpt lat="51.910313" lon="-1.849214"><ele>185.67</ele><time>2011-02-23T10:35:07Z</time></trkpt><trkpt lat="51.910261" lon="-1.849059"><ele>186.15</ele><time>2011-02-23T10:35:19Z</time></trkpt><trkpt lat="51.910247" lon="-1.849006"><ele>186.15</ele><time>2011-02-23T10:35:23Z</time></trkpt><trkpt lat="51.910151" lon="-1.848793"><ele>187.11</ele><time>2011-02-23T10:35:40Z</time></trkpt><trkpt lat="51.910076" lon="-1.848612"><ele>187.59</ele><time>2011-02-23T10:35:55Z</time></trkpt><trkpt lat="51.910023" lon="-1.848474"><ele>188.08</ele><time>2011-02-23T10:36:08Z</time></trkpt><trkpt lat="51.909973" lon="-1.848355"><ele>188.56</ele><time>2011-02-23T10:36:19Z</time></trkpt><trkpt lat="51.909917" lon="-1.848205"><ele>188.56</ele><time>2011-02-23T10:36:32Z</time></trkpt><trkpt lat="51.909855" lon="-1.848068"><ele>188.08</ele><time>2011-02-23T10:36:45Z</time></trkpt><trkpt lat="51.909800" lon="-1.847931"><ele>187.59</ele><time>2011-02-23T10:36:57Z</time></trkpt><trkpt lat="51.909776" lon="-1.847885"><ele>187.59</ele><time>2011-02-23T10:37:02Z</time></trkpt><trkpt lat="51.909724" lon="-1.847755"><ele>186.63</ele><time>2011-02-23T10:37:14Z</time></trkpt><trkpt lat="51.909703" lon="-1.847709"><ele>186.63</ele><time>2011-02-23T10:37:18Z</time></trkpt><trkpt lat="51.909653" lon="-1.847506"><ele>186.63</ele><time>2011-02-23T10:37:34Z</time></trkpt><trkpt lat="51.909597" lon="-1.847334"><ele>186.63</ele><time>2011-02-23T10:37:48Z</time></trkpt><trkpt lat="51.909556" lon="-1.847206"><ele>186.63</ele><time>2011-02-23T10:37:58Z</time></trkpt><trkpt lat="51.909498" lon="-1.847052"><ele>186.15</ele><time>2011-02-23T10:38:12Z</time></trkpt><trkpt lat="51.909448" lon="-1.846897"><ele>186.15</ele><time>2011-02-23T10:38:25Z</time></trkpt><trkpt lat="51.909409" lon="-1.846772"><ele>185.67</ele><time>2011-02-23T10:38:37Z</time></trkpt><trkpt lat="51.909361" lon="-1.846642"><ele>184.71</ele><time>2011-02-23T10:38:49Z</time></trkpt><trkpt lat="51.909302" lon="-1.846499"><ele>183.75</ele><time>2011-02-23T10:39:02Z</time></trkpt><trkpt lat="51.909275" lon="-1.846433"><ele>181.35</ele><time>2011-02-23T10:39:17Z</time></trkpt><trkpt lat="51.909227" lon="-1.846269"><ele>181.35</ele><time>2011-02-23T10:39:30Z</time></trkpt><trkpt lat="51.909183" lon="-1.846120"><ele>182.79</ele><time>2011-02-23T10:39:42Z</time></trkpt><trkpt lat="51.909142" lon="-1.845979"><ele>183.75</ele><time>2011-02-23T10:39:55Z</time></trkpt><trkpt lat="51.909108" lon="-1.845883"><ele>183.27</ele><time>2011-02-23T10:40:06Z</time></trkpt><trkpt lat="51.909065" lon="-1.845754"><ele>183.27</ele><time>2011-02-23T10:40:18Z</time></trkpt><trkpt lat="51.909016" lon="-1.845591"><ele>182.79</ele><time>2011-02-23T10:40:31Z</time></trkpt><trkpt lat="51.908967" lon="-1.845448"><ele>183.27</ele><time>2011-02-23T10:40:43Z</time></trkpt><trkpt lat="51.908927" lon="-1.845307"><ele>185.19</ele><time>2011-02-23T10:40:55Z</time></trkpt><trkpt lat="51.908865" lon="-1.845196"><ele>185.67</ele><time>2011-02-23T10:41:07Z</time></trkpt><trkpt lat="51.908822" lon="-1.845096"><ele>184.71</ele><time>2011-02-23T10:41:19Z</time></trkpt><trkpt lat="51.908785" lon="-1.844978"><ele>183.27</ele><time>2011-02-23T10:41:33Z</time></trkpt><trkpt lat="51.908785" lon="-1.844917"><ele>182.79</ele><time>2011-02-23T10:41:39Z</time></trkpt><trkpt lat="51.908775" lon="-1.844908"><ele>182.79</ele><time>2011-02-23T10:41:54Z</time></trkpt><trkpt lat="51.908776" lon="-1.844897"><ele>182.79</ele><time>2011-02-23T10:42:17Z</time></trkpt><trkpt lat="51.908719" lon="-1.844685"><ele>183.27</ele><time>2011-02-23T10:42:33Z</time></trkpt><trkpt lat="51.908705" lon="-1.844639"><ele>184.23</ele><time>2011-02-23T10:42:46Z</time></trkpt><trkpt lat="51.908649" lon="-1.844355"><ele>182.31</ele><time>2011-02-23T10:43:03Z</time></trkpt><trkpt lat="51.908642" lon="-1.844343"><ele>182.31</ele><time>2011-02-23T10:43:04Z</time></trkpt><trkpt lat="51.908608" lon="-1.844284"><ele>181.35</ele><time>2011-02-23T10:43:09Z</time></trkpt><trkpt lat="51.908551" lon="-1.844054"><ele>179.90</ele><time>2011-02-23T10:43:26Z</time></trkpt><trkpt lat="51.908503" lon="-1.843848"><ele>178.46</ele><time>2011-02-23T10:43:41Z</time></trkpt><trkpt lat="51.908463" lon="-1.843657"><ele>177.50</ele><time>2011-02-23T10:43:55Z</time></trkpt><trkpt lat="51.908429" lon="-1.843471"><ele>177.02</ele><time>2011-02-23T10:44:09Z</time></trkpt><trkpt lat="51.908386" lon="-1.843321"><ele>176.54</ele><time>2011-02-23T10:44:24Z</time></trkpt><trkpt lat="51.908366" lon="-1.843186"><ele>176.06</ele><time>2011-02-23T10:44:37Z</time></trkpt><trkpt lat="51.908324" lon="-1.843105"><ele>175.10</ele><time>2011-02-23T10:44:54Z</time></trkpt><trkpt lat="51.908292" lon="-1.843080"><ele>175.58</ele><time>2011-02-23T10:45:08Z</time></trkpt><trkpt lat="51.908270" lon="-1.842966"><ele>176.06</ele><time>2011-02-23T10:45:20Z</time></trkpt><trkpt lat="51.908307" lon="-1.842855"><ele>175.58</ele><time>2011-02-23T10:45:30Z</time></trkpt><trkpt lat="51.908315" lon="-1.842656"><ele>176.54</ele><time>2011-02-23T10:45:44Z</time></trkpt><trkpt lat="51.908301" lon="-1.842581"><ele>176.06</ele><time>2011-02-23T10:45:56Z</time></trkpt><trkpt lat="51.908274" lon="-1.842253"><ele>174.14</ele><time>2011-02-23T10:46:13Z</time></trkpt><trkpt lat="51.908274" lon="-1.842190"><ele>173.66</ele><time>2011-02-23T10:46:17Z</time></trkpt><trkpt lat="51.908251" lon="-1.842134"><ele>173.66</ele><time>2011-02-23T10:46:32Z</time></trkpt><trkpt lat="51.908252" lon="-1.842134"><ele>173.17</ele><time>2011-02-23T10:46:35Z</time></trkpt><trkpt lat="51.908260" lon="-1.841848"><ele>171.25</ele><time>2011-02-23T10:46:51Z</time></trkpt><trkpt lat="51.908278" lon="-1.841518"><ele>170.29</ele><time>2011-02-23T10:47:11Z</time></trkpt><trkpt lat="51.908289" lon="-1.841262"><ele>168.85</ele><time>2011-02-23T10:47:28Z</time></trkpt><trkpt lat="51.908293" lon="-1.841100"><ele>167.41</ele><time>2011-02-23T10:47:42Z</time></trkpt><trkpt lat="51.908302" lon="-1.840753"><ele>166.93</ele><time>2011-02-23T10:48:00Z</time></trkpt><trkpt lat="51.908322" lon="-1.840488"><ele>168.37</ele><time>2011-02-23T10:48:18Z</time></trkpt><trkpt lat="51.908326" lon="-1.840413"><ele>167.41</ele><time>2011-02-23T10:48:23Z</time></trkpt><trkpt lat="51.908334" lon="-1.840212"><ele>165.00</ele><time>2011-02-23T10:48:36Z</time></trkpt><trkpt lat="51.908363" lon="-1.839952"><ele>165.48</ele><time>2011-02-23T10:48:52Z</time></trkpt><trkpt lat="51.908363" lon="-1.839705"><ele>166.45</ele><time>2011-02-23T10:49:07Z</time></trkpt><trkpt lat="51.908368" lon="-1.839630"><ele>166.45</ele><time>2011-02-23T10:49:12Z</time></trkpt><trkpt lat="51.908378" lon="-1.839409"><ele>165.00</ele><time>2011-02-23T10:49:27Z</time></trkpt><trkpt lat="51.908386" lon="-1.839249"><ele>162.12</ele><time>2011-02-23T10:49:41Z</time></trkpt><trkpt lat="51.908383" lon="-1.838967"><ele>162.12</ele><time>2011-02-23T10:49:56Z</time></trkpt><trkpt lat="51.908377" lon="-1.838866"><ele>161.64</ele><time>2011-02-23T10:50:03Z</time></trkpt><trkpt lat="51.908374" lon="-1.838822"><ele>162.60</ele><time>2011-02-23T10:50:06Z</time></trkpt><trkpt lat="51.908366" lon="-1.838736"><ele>161.64</ele><time>2011-02-23T10:50:12Z</time></trkpt><trkpt lat="51.908366" lon="-1.838532"><ele>159.24</ele><time>2011-02-23T10:50:24Z</time></trkpt><trkpt lat="51.908396" lon="-1.838242"><ele>152.99</ele><time>2011-02-23T10:50:37Z</time></trkpt><trkpt lat="51.908514" lon="-1.837983"><ele>152.51</ele><time>2011-02-23T10:50:54Z</time></trkpt><trkpt lat="51.908587" lon="-1.837789"><ele>152.99</ele><time>2011-02-23T10:51:11Z</time></trkpt><trkpt lat="51.908676" lon="-1.837536"><ele>149.14</ele><time>2011-02-23T10:51:29Z</time></trkpt><trkpt lat="51.908767" lon="-1.837357"><ele>149.14</ele><time>2011-02-23T10:51:47Z</time></trkpt><trkpt lat="51.908897" lon="-1.837249"><ele>149.62</ele><time>2011-02-23T10:52:03Z</time></trkpt><trkpt lat="51.909015" lon="-1.837258"><ele>148.18</ele><time>2011-02-23T10:52:19Z</time></trkpt><trkpt lat="51.909104" lon="-1.837307"><ele>144.82</ele><time>2011-02-23T10:52:31Z</time></trkpt><trkpt lat="51.909361" lon="-1.837167"><ele>142.41</ele><time>2011-02-23T10:52:49Z</time></trkpt><trkpt lat="51.909405" lon="-1.837109"><ele>142.89</ele><time>2011-02-23T10:52:53Z</time></trkpt><trkpt lat="51.909548" lon="-1.836824"><ele>151.54</ele><time>2011-02-23T10:53:12Z</time></trkpt><trkpt lat="51.909621" lon="-1.836657"><ele>151.06</ele><time>2011-02-23T10:53:26Z</time></trkpt><trkpt lat="51.909706" lon="-1.836497"><ele>150.10</ele><time>2011-02-23T10:53:41Z</time></trkpt><trkpt lat="51.909771" lon="-1.836457"><ele>151.54</ele><time>2011-02-23T10:53:56Z</time></trkpt><trkpt lat="51.909772" lon="-1.836466"><ele>151.54</ele><time>2011-02-23T10:54:01Z</time></trkpt><trkpt lat="51.909852" lon="-1.836590"><ele>152.51</ele><time>2011-02-23T10:54:16Z</time></trkpt><trkpt lat="51.909946" lon="-1.836674"><ele>153.47</ele><time>2011-02-23T10:54:28Z</time></trkpt><trkpt lat="51.910062" lon="-1.836744"><ele>154.91</ele><time>2011-02-23T10:54:41Z</time></trkpt><trkpt lat="51.910167" lon="-1.836716"><ele>155.87</ele><time>2011-02-23T10:54:54Z</time></trkpt><trkpt lat="51.910280" lon="-1.836689"><ele>158.27</ele><time>2011-02-23T10:55:07Z</time></trkpt><trkpt lat="51.910382" lon="-1.836647"><ele>159.24</ele><time>2011-02-23T10:55:21Z</time></trkpt><trkpt lat="51.910476" lon="-1.836617"><ele>159.72</ele><time>2011-02-23T10:55:34Z</time></trkpt><trkpt lat="51.910586" lon="-1.836592"><ele>160.20</ele><time>2011-02-23T10:55:48Z</time></trkpt><trkpt lat="51.910664" lon="-1.836576"><ele>162.12</ele><time>2011-02-23T10:56:01Z</time></trkpt><trkpt lat="51.910798" lon="-1.836568"><ele>164.52</ele><time>2011-02-23T10:56:20Z</time></trkpt><trkpt lat="51.910910" lon="-1.836580"><ele>165.00</ele><time>2011-02-23T10:56:36Z</time></trkpt><trkpt lat="51.911000" lon="-1.836639"><ele>166.93</ele><time>2011-02-23T10:56:49Z</time></trkpt><trkpt lat="51.911021" lon="-1.836641"><ele>166.93</ele><time>2011-02-23T10:56:52Z</time></trkpt><trkpt lat="51.911116" lon="-1.836634"><ele>167.89</ele><time>2011-02-23T10:57:04Z</time></trkpt><trkpt lat="51.911202" lon="-1.836641"><ele>168.85</ele><time>2011-02-23T10:57:16Z</time></trkpt><trkpt lat="51.911271" lon="-1.836642"><ele>169.33</ele><time>2011-02-23T10:57:27Z</time></trkpt><trkpt lat="51.911330" lon="-1.836627"><ele>169.81</ele><time>2011-02-23T10:57:41Z</time></trkpt><trkpt lat="51.911375" lon="-1.836624"><ele>169.81</ele><time>2011-02-23T10:57:58Z</time></trkpt><trkpt lat="51.911417" lon="-1.836619"><ele>169.33</ele><time>2011-02-23T10:58:14Z</time></trkpt><trkpt lat="51.911490" lon="-1.836662"><ele>169.81</ele><time>2011-02-23T10:58:28Z</time></trkpt><trkpt lat="51.911574" lon="-1.836701"><ele>170.29</ele><time>2011-02-23T10:58:41Z</time></trkpt><trkpt lat="51.911670" lon="-1.836739"><ele>169.81</ele><time>2011-02-23T10:58:55Z</time></trkpt><trkpt lat="51.911827" lon="-1.836764"><ele>175.10</ele><time>2011-02-23T10:59:14Z</time></trkpt><trkpt lat="51.911911" lon="-1.836771"><ele>177.98</ele><time>2011-02-23T10:59:26Z</time></trkpt><trkpt lat="51.912035" lon="-1.836778"><ele>179.42</ele><time>2011-02-23T10:59:41Z</time></trkpt><trkpt lat="51.912116" lon="-1.836815"><ele>179.90</ele><time>2011-02-23T10:59:53Z</time></trkpt><trkpt lat="51.912202" lon="-1.836826"><ele>179.42</ele><time>2011-02-23T11:00:05Z</time></trkpt><trkpt lat="51.912318" lon="-1.836830"><ele>179.90</ele><time>2011-02-23T11:00:19Z</time></trkpt><trkpt lat="51.912504" lon="-1.836814"><ele>175.58</ele><time>2011-02-23T11:00:42Z</time></trkpt><trkpt lat="51.912656" lon="-1.836747"><ele>176.06</ele><time>2011-02-23T11:01:01Z</time></trkpt><trkpt lat="51.912703" lon="-1.836726"><ele>176.06</ele><time>2011-02-23T11:01:08Z</time></trkpt><trkpt lat="51.912796" lon="-1.836694"><ele>177.50</ele><time>2011-02-23T11:01:21Z</time></trkpt><trkpt lat="51.912886" lon="-1.836652"><ele>179.42</ele><time>2011-02-23T11:01:36Z</time></trkpt><trkpt lat="51.912910" lon="-1.836614"><ele>181.83</ele><time>2011-02-23T11:01:47Z</time></trkpt><trkpt lat="51.913081" lon="-1.836535"><ele>186.15</ele><time>2011-02-23T11:02:03Z</time></trkpt><trkpt lat="51.913210" lon="-1.836461"><ele>184.71</ele><time>2011-02-23T11:02:19Z</time></trkpt><trkpt lat="51.913274" lon="-1.836450"><ele>186.15</ele><time>2011-02-23T11:02:34Z</time></trkpt><trkpt lat="51.913424" lon="-1.836419"><ele>189.04</ele><time>2011-02-23T11:02:48Z</time></trkpt><trkpt lat="51.913503" lon="-1.836387"><ele>189.52</ele><time>2011-02-23T11:02:58Z</time></trkpt><trkpt lat="51.913608" lon="-1.836343"><ele>191.92</ele><time>2011-02-23T11:03:14Z</time></trkpt><trkpt lat="51.913735" lon="-1.836313"><ele>192.40</ele><time>2011-02-23T11:03:28Z</time></trkpt><trkpt lat="51.913849" lon="-1.836268"><ele>191.44</ele><time>2011-02-23T11:03:46Z</time></trkpt><trkpt lat="51.914003" lon="-1.836256"><ele>191.92</ele><time>2011-02-23T11:04:04Z</time></trkpt><trkpt lat="51.914121" lon="-1.836239"><ele>197.21</ele><time>2011-02-23T11:04:18Z</time></trkpt><trkpt lat="51.914220" lon="-1.836255"><ele>198.17</ele><time>2011-02-23T11:04:32Z</time></trkpt><trkpt lat="51.914336" lon="-1.836256"><ele>200.57</ele><time>2011-02-23T11:04:47Z</time></trkpt><trkpt lat="51.914445" lon="-1.836287"><ele>202.01</ele><time>2011-02-23T11:05:00Z</time></trkpt><trkpt lat="51.914572" lon="-1.836318"><ele>202.49</ele><time>2011-02-23T11:05:15Z</time></trkpt><trkpt lat="51.914689" lon="-1.836321"><ele>202.98</ele><time>2011-02-23T11:05:28Z</time></trkpt><trkpt lat="51.914846" lon="-1.836355"><ele>205.38</ele><time>2011-02-23T11:05:47Z</time></trkpt><trkpt lat="51.914963" lon="-1.836410"><ele>204.90</ele><time>2011-02-23T11:06:02Z</time></trkpt><trkpt lat="51.915061" lon="-1.836457"><ele>207.30</ele><time>2011-02-23T11:06:15Z</time></trkpt><trkpt lat="51.915183" lon="-1.836523"><ele>209.22</ele><time>2011-02-23T11:06:31Z</time></trkpt><trkpt lat="51.915325" lon="-1.836545"><ele>209.70</ele><time>2011-02-23T11:06:46Z</time></trkpt><trkpt lat="51.915475" lon="-1.836586"><ele>212.11</ele><time>2011-02-23T11:07:03Z</time></trkpt><trkpt lat="51.915563" lon="-1.836632"><ele>213.55</ele><time>2011-02-23T11:07:16Z</time></trkpt><trkpt lat="51.915667" lon="-1.836679"><ele>217.40</ele><time>2011-02-23T11:07:29Z</time></trkpt><trkpt lat="51.915739" lon="-1.836703"><ele>219.80</ele><time>2011-02-23T11:07:41Z</time></trkpt><trkpt lat="51.915795" lon="-1.836614"><ele>216.43</ele><time>2011-02-23T11:07:52Z</time></trkpt><trkpt lat="51.915802" lon="-1.836599"><ele>216.91</ele><time>2011-02-23T11:07:54Z</time></trkpt><trkpt lat="51.915816" lon="-1.836525"><ele>214.99</ele><time>2011-02-23T11:08:09Z</time></trkpt><trkpt lat="51.915796" lon="-1.836527"><ele>214.03</ele><time>2011-02-23T11:08:23Z</time></trkpt><trkpt lat="51.915791" lon="-1.836554"><ele>214.99</ele><time>2011-02-23T11:09:22Z</time></trkpt><trkpt lat="51.915778" lon="-1.836554"><ele>213.07</ele><time>2011-02-23T11:14:28Z</time></trkpt><trkpt lat="51.915793" lon="-1.836554"><ele>212.11</ele><time>2011-02-23T11:18:13Z</time></trkpt><trkpt lat="51.915788" lon="-1.836544"><ele>211.63</ele><time>2011-02-23T11:18:58Z</time></trkpt><trkpt lat="51.915798" lon="-1.836543"><ele>212.11</ele><time>2011-02-23T11:19:58Z</time></trkpt><trkpt lat="51.915784" lon="-1.836543"><ele>213.07</ele><time>2011-02-23T11:20:13Z</time></trkpt><trkpt lat="51.915814" lon="-1.836716"><ele>216.43</ele><time>2011-02-23T11:20:38Z</time></trkpt><trkpt lat="51.915881" lon="-1.836783"><ele>217.40</ele><time>2011-02-23T11:20:46Z</time></trkpt><trkpt lat="51.916004" lon="-1.837002"><ele>221.72</ele><time>2011-02-23T11:21:03Z</time></trkpt><trkpt lat="51.916094" lon="-1.837233"><ele>224.61</ele><time>2011-02-23T11:21:20Z</time></trkpt><trkpt lat="51.916269" lon="-1.837378"><ele>226.53</ele><time>2011-02-23T11:21:37Z</time></trkpt><trkpt lat="51.916404" lon="-1.837433"><ele>226.53</ele><time>2011-02-23T11:21:51Z</time></trkpt><trkpt lat="51.916414" lon="-1.837461"><ele>227.01</ele><time>2011-02-23T11:22:07Z</time></trkpt><trkpt lat="51.916402" lon="-1.837462"><ele>226.53</ele><time>2011-02-23T11:22:23Z</time></trkpt><trkpt lat="51.916402" lon="-1.837423"><ele>227.49</ele><time>2011-02-23T11:23:00Z</time></trkpt><trkpt lat="51.916658" lon="-1.837434"><ele>228.93</ele><time>2011-02-23T11:23:16Z</time></trkpt><trkpt lat="51.916756" lon="-1.837467"><ele>228.45</ele><time>2011-02-23T11:23:24Z</time></trkpt><trkpt lat="51.916956" lon="-1.837441"><ele>227.97</ele><time>2011-02-23T11:23:40Z</time></trkpt><trkpt lat="51.917231" lon="-1.837325"><ele>228.45</ele><time>2011-02-23T11:24:02Z</time></trkpt><trkpt lat="51.917416" lon="-1.837225"><ele>230.37</ele><time>2011-02-23T11:24:18Z</time></trkpt><trkpt lat="51.917572" lon="-1.837168"><ele>233.74</ele><time>2011-02-23T11:24:34Z</time></trkpt><trkpt lat="51.917717" lon="-1.837099"><ele>232.78</ele><time>2011-02-23T11:24:50Z</time></trkpt><trkpt lat="51.917799" lon="-1.837033"><ele>232.30</ele><time>2011-02-23T11:25:07Z</time></trkpt><trkpt lat="51.917961" lon="-1.836923"><ele>227.01</ele><time>2011-02-23T11:25:24Z</time></trkpt><trkpt lat="51.918173" lon="-1.836814"><ele>230.37</ele><time>2011-02-23T11:25:45Z</time></trkpt><trkpt lat="51.918193" lon="-1.836803"><ele>230.85</ele><time>2011-02-23T11:25:47Z</time></trkpt><trkpt lat="51.918318" lon="-1.836774"><ele>235.66</ele><time>2011-02-23T11:26:05Z</time></trkpt><trkpt lat="51.918484" lon="-1.836681"><ele>235.66</ele><time>2011-02-23T11:26:25Z</time></trkpt><trkpt lat="51.918624" lon="-1.836580"><ele>234.70</ele><time>2011-02-23T11:26:41Z</time></trkpt><trkpt lat="51.918823" lon="-1.836459"><ele>233.74</ele><time>2011-02-23T11:27:02Z</time></trkpt><trkpt lat="51.919005" lon="-1.836359"><ele>235.18</ele><time>2011-02-23T11:27:21Z</time></trkpt><trkpt lat="51.919042" lon="-1.836281"><ele>236.62</ele><time>2011-02-23T11:27:37Z</time></trkpt><trkpt lat="51.919107" lon="-1.836233"><ele>236.62</ele><time>2011-02-23T11:27:51Z</time></trkpt><trkpt lat="51.919131" lon="-1.836226"><ele>236.62</ele><time>2011-02-23T11:27:55Z</time></trkpt><trkpt lat="51.919357" lon="-1.836124"><ele>235.18</ele><time>2011-02-23T11:28:16Z</time></trkpt><trkpt lat="51.919415" lon="-1.836093"><ele>236.62</ele><time>2011-02-23T11:28:22Z</time></trkpt><trkpt lat="51.919431" lon="-1.836085"><ele>236.62</ele><time>2011-02-23T11:28:24Z</time></trkpt><trkpt lat="51.919584" lon="-1.836020"><ele>236.14</ele><time>2011-02-23T11:28:41Z</time></trkpt><trkpt lat="51.919764" lon="-1.835933"><ele>237.58</ele><time>2011-02-23T11:29:00Z</time></trkpt><trkpt lat="51.919960" lon="-1.835833"><ele>239.51</ele><time>2011-02-23T11:29:21Z</time></trkpt><trkpt lat="51.920124" lon="-1.835758"><ele>239.51</ele><time>2011-02-23T11:29:39Z</time></trkpt><trkpt lat="51.920333" lon="-1.835698"><ele>239.51</ele><time>2011-02-23T11:29:59Z</time></trkpt><trkpt lat="51.920526" lon="-1.835628"><ele>240.47</ele><time>2011-02-23T11:30:19Z</time></trkpt><trkpt lat="51.920727" lon="-1.835559"><ele>239.99</ele><time>2011-02-23T11:30:39Z</time></trkpt><trkpt lat="51.920879" lon="-1.835520"><ele>239.99</ele><time>2011-02-23T11:30:56Z</time></trkpt><trkpt lat="51.921098" lon="-1.835479"><ele>239.02</ele><time>2011-02-23T11:31:17Z</time></trkpt><trkpt lat="51.921374" lon="-1.835462"><ele>238.54</ele><time>2011-02-23T11:31:43Z</time></trkpt><trkpt lat="51.921628" lon="-1.835424"><ele>237.10</ele><time>2011-02-23T11:32:06Z</time></trkpt><trkpt lat="51.921861" lon="-1.835392"><ele>236.14</ele><time>2011-02-23T11:32:28Z</time></trkpt><trkpt lat="51.922039" lon="-1.835356"><ele>236.62</ele><time>2011-02-23T11:32:48Z</time></trkpt><trkpt lat="51.922141" lon="-1.835358"><ele>237.10</ele><time>2011-02-23T11:33:04Z</time></trkpt><trkpt lat="51.922202" lon="-1.835386"><ele>237.58</ele><time>2011-02-23T11:33:18Z</time></trkpt><trkpt lat="51.922307" lon="-1.835370"><ele>236.62</ele><time>2011-02-23T11:33:33Z</time></trkpt><trkpt lat="51.922481" lon="-1.835339"><ele>234.70</ele><time>2011-02-23T11:33:52Z</time></trkpt><trkpt lat="51.922688" lon="-1.835332"><ele>232.78</ele><time>2011-02-23T11:34:13Z</time></trkpt><trkpt lat="51.922764" lon="-1.835341"><ele>232.78</ele><time>2011-02-23T11:34:25Z</time></trkpt><trkpt lat="51.923012" lon="-1.835310"><ele>232.78</ele><time>2011-02-23T11:34:52Z</time></trkpt><trkpt lat="51.923124" lon="-1.835292"><ele>232.78</ele><time>2011-02-23T11:35:06Z</time></trkpt><trkpt lat="51.923284" lon="-1.835251"><ele>233.74</ele><time>2011-02-23T11:35:25Z</time></trkpt><trkpt lat="51.923455" lon="-1.835195"><ele>234.22</ele><time>2011-02-23T11:35:44Z</time></trkpt><trkpt lat="51.923639" lon="-1.835107"><ele>232.30</ele><time>2011-02-23T11:36:04Z</time></trkpt><trkpt lat="51.923721" lon="-1.835065"><ele>233.74</ele><time>2011-02-23T11:36:17Z</time></trkpt><trkpt lat="51.923922" lon="-1.834986"><ele>235.18</ele><time>2011-02-23T11:36:37Z</time></trkpt><trkpt lat="51.924126" lon="-1.834882"><ele>235.66</ele><time>2011-02-23T11:37:00Z</time></trkpt><trkpt lat="51.924365" lon="-1.834756"><ele>236.62</ele><time>2011-02-23T11:37:25Z</time></trkpt><trkpt lat="51.924575" lon="-1.834630"><ele>237.58</ele><time>2011-02-23T11:37:47Z</time></trkpt><trkpt lat="51.924777" lon="-1.834535"><ele>238.06</ele><time>2011-02-23T11:38:11Z</time></trkpt><trkpt lat="51.924975" lon="-1.834466"><ele>236.14</ele><time>2011-02-23T11:38:33Z</time></trkpt><trkpt lat="51.925156" lon="-1.834434"><ele>238.54</ele><time>2011-02-23T11:38:54Z</time></trkpt><trkpt lat="51.925360" lon="-1.834381"><ele>237.10</ele><time>2011-02-23T11:39:14Z</time></trkpt><trkpt lat="51.925608" lon="-1.834323"><ele>233.26</ele><time>2011-02-23T11:39:39Z</time></trkpt><trkpt lat="51.925863" lon="-1.834263"><ele>238.06</ele><time>2011-02-23T11:40:02Z</time></trkpt><trkpt lat="51.926130" lon="-1.834239"><ele>236.62</ele><time>2011-02-23T11:40:28Z</time></trkpt><trkpt lat="51.926335" lon="-1.834229"><ele>233.74</ele><time>2011-02-23T11:40:50Z</time></trkpt><trkpt lat="51.926495" lon="-1.834233"><ele>232.30</ele><time>2011-02-23T11:41:07Z</time></trkpt><trkpt lat="51.926644" lon="-1.834217"><ele>229.89</ele><time>2011-02-23T11:41:22Z</time></trkpt><trkpt lat="51.926764" lon="-1.834203"><ele>227.49</ele><time>2011-02-23T11:41:35Z</time></trkpt><trkpt lat="51.926937" lon="-1.834203"><ele>228.45</ele><time>2011-02-23T11:41:52Z</time></trkpt><trkpt lat="51.927067" lon="-1.834171"><ele>225.57</ele><time>2011-02-23T11:42:07Z</time></trkpt><trkpt lat="51.927284" lon="-1.834166"><ele>224.61</ele><time>2011-02-23T11:42:28Z</time></trkpt><trkpt lat="51.927478" lon="-1.834181"><ele>226.05</ele><time>2011-02-23T11:42:47Z</time></trkpt><trkpt lat="51.927607" lon="-1.834172"><ele>226.53</ele><time>2011-02-23T11:43:02Z</time></trkpt><trkpt lat="51.927635" lon="-1.834144"><ele>227.01</ele><time>2011-02-23T11:43:19Z</time></trkpt><trkpt lat="51.927699" lon="-1.834157"><ele>227.49</ele><time>2011-02-23T11:43:31Z</time></trkpt><trkpt lat="51.927701" lon="-1.834154"><ele>227.01</ele><time>2011-02-23T11:43:38Z</time></trkpt><trkpt lat="51.927829" lon="-1.833908"><ele>225.57</ele><time>2011-02-23T11:43:56Z</time></trkpt><trkpt lat="51.927910" lon="-1.833692"><ele>223.64</ele><time>2011-02-23T11:44:11Z</time></trkpt><trkpt lat="51.927929" lon="-1.833619"><ele>221.72</ele><time>2011-02-23T11:44:16Z</time></trkpt><trkpt lat="51.928026" lon="-1.833434"><ele>218.84</ele><time>2011-02-23T11:44:30Z</time></trkpt><trkpt lat="51.928165" lon="-1.833151"><ele>217.40</ele><time>2011-02-23T11:44:49Z</time></trkpt><trkpt lat="51.928180" lon="-1.833116"><ele>218.84</ele><time>2011-02-23T11:44:56Z</time></trkpt><trkpt lat="51.928311" lon="-1.832874"><ele>219.80</ele><time>2011-02-23T11:45:14Z</time></trkpt><trkpt lat="51.928334" lon="-1.832835"><ele>220.76</ele><time>2011-02-23T11:45:17Z</time></trkpt><trkpt lat="51.928350" lon="-1.832815"><ele>220.76</ele><time>2011-02-23T11:45:19Z</time></trkpt><trkpt lat="51.928500" lon="-1.832555"><ele>222.68</ele><time>2011-02-23T11:45:39Z</time></trkpt><trkpt lat="51.928556" lon="-1.832400"><ele>223.64</ele><time>2011-02-23T11:45:50Z</time></trkpt><trkpt lat="51.928636" lon="-1.832191"><ele>219.32</ele><time>2011-02-23T11:46:04Z</time></trkpt><trkpt lat="51.928651" lon="-1.832164"><ele>218.84</ele><time>2011-02-23T11:46:06Z</time></trkpt><trkpt lat="51.928739" lon="-1.831987"><ele>218.84</ele><time>2011-02-23T11:46:21Z</time></trkpt><trkpt lat="51.928863" lon="-1.831765"><ele>222.20</ele><time>2011-02-23T11:46:39Z</time></trkpt><trkpt lat="51.928871" lon="-1.831742"><ele>222.68</ele><time>2011-02-23T11:46:41Z</time></trkpt><trkpt lat="51.928983" lon="-1.831510"><ele>223.64</ele><time>2011-02-23T11:46:59Z</time></trkpt><trkpt lat="51.929012" lon="-1.831469"><ele>224.61</ele><time>2011-02-23T11:47:17Z</time></trkpt><trkpt lat="51.928993" lon="-1.831472"><ele>225.09</ele><time>2011-02-23T11:48:40Z</time></trkpt><trkpt lat="51.928997" lon="-1.831500"><ele>225.57</ele><time>2011-02-23T11:49:02Z</time></trkpt><trkpt lat="51.929031" lon="-1.831680"><ele>226.53</ele><time>2011-02-23T11:49:21Z</time></trkpt><trkpt lat="51.929011" lon="-1.831796"><ele>226.53</ele><time>2011-02-23T11:49:31Z</time></trkpt><trkpt lat="51.928978" lon="-1.831963"><ele>226.53</ele><time>2011-02-23T11:49:43Z</time></trkpt><trkpt lat="51.928993" lon="-1.832283"><ele>227.01</ele><time>2011-02-23T11:50:05Z</time></trkpt><trkpt lat="51.928993" lon="-1.832500"><ele>226.53</ele><time>2011-02-23T11:50:21Z</time></trkpt><trkpt lat="51.929021" lon="-1.832824"><ele>226.53</ele><time>2011-02-23T11:50:44Z</time></trkpt><trkpt lat="51.929045" lon="-1.833120"><ele>227.97</ele><time>2011-02-23T11:51:02Z</time></trkpt><trkpt lat="51.929110" lon="-1.833417"><ele>227.01</ele><time>2011-02-23T11:51:23Z</time></trkpt><trkpt lat="51.929168" lon="-1.833735"><ele>225.57</ele><time>2011-02-23T11:51:44Z</time></trkpt><trkpt lat="51.929185" lon="-1.833835"><ele>225.09</ele><time>2011-02-23T11:51:50Z</time></trkpt><trkpt lat="51.929239" lon="-1.834132"><ele>224.61</ele><time>2011-02-23T11:52:08Z</time></trkpt><trkpt lat="51.929317" lon="-1.834444"><ele>225.09</ele><time>2011-02-23T11:52:28Z</time></trkpt><trkpt lat="51.929408" lon="-1.834754"><ele>225.57</ele><time>2011-02-23T11:52:49Z</time></trkpt><trkpt lat="51.929482" lon="-1.835056"><ele>226.05</ele><time>2011-02-23T11:53:10Z</time></trkpt><trkpt lat="51.929559" lon="-1.835359"><ele>227.49</ele><time>2011-02-23T11:53:30Z</time></trkpt><trkpt lat="51.929603" lon="-1.835665"><ele>227.97</ele><time>2011-02-23T11:53:51Z</time></trkpt><trkpt lat="51.929626" lon="-1.836000"><ele>228.93</ele><time>2011-02-23T11:54:13Z</time></trkpt><trkpt lat="51.929630" lon="-1.836303"><ele>229.41</ele><time>2011-02-23T11:54:33Z</time></trkpt><trkpt lat="51.929613" lon="-1.836717"><ele>230.37</ele><time>2011-02-23T11:54:57Z</time></trkpt><trkpt lat="51.929576" lon="-1.837117"><ele>230.37</ele><time>2011-02-23T11:55:22Z</time></trkpt><trkpt lat="51.929547" lon="-1.837485"><ele>230.85</ele><time>2011-02-23T11:55:45Z</time></trkpt><trkpt lat="51.929512" lon="-1.837823"><ele>231.81</ele><time>2011-02-23T11:56:06Z</time></trkpt><trkpt lat="51.929495" lon="-1.838128"><ele>233.26</ele><time>2011-02-23T11:56:27Z</time></trkpt><trkpt lat="51.929489" lon="-1.838270"><ele>233.74</ele><time>2011-02-23T11:56:42Z</time></trkpt><trkpt lat="51.929453" lon="-1.838549"><ele>234.22</ele><time>2011-02-23T11:57:03Z</time></trkpt><trkpt lat="51.929411" lon="-1.838924"><ele>235.18</ele><time>2011-02-23T11:57:28Z</time></trkpt><trkpt lat="51.929371" lon="-1.839204"><ele>234.70</ele><time>2011-02-23T11:57:46Z</time></trkpt><trkpt lat="51.929343" lon="-1.839488"><ele>236.62</ele><time>2011-02-23T11:58:06Z</time></trkpt><trkpt lat="51.929305" lon="-1.839773"><ele>235.66</ele><time>2011-02-23T11:58:26Z</time></trkpt><trkpt lat="51.929299" lon="-1.839958"><ele>237.58</ele><time>2011-02-23T11:58:40Z</time></trkpt><trkpt lat="51.929329" lon="-1.840265"><ele>238.54</ele><time>2011-02-23T11:59:03Z</time></trkpt><trkpt lat="51.929304" lon="-1.840585"><ele>238.06</ele><time>2011-02-23T11:59:24Z</time></trkpt><trkpt lat="51.929261" lon="-1.840923"><ele>241.43</ele><time>2011-02-23T11:59:48Z</time></trkpt><trkpt lat="51.929221" lon="-1.841238"><ele>242.87</ele><time>2011-02-23T12:00:11Z</time></trkpt><trkpt lat="51.929176" lon="-1.841618"><ele>245.27</ele><time>2011-02-23T12:00:38Z</time></trkpt><trkpt lat="51.929136" lon="-1.841908"><ele>246.23</ele><time>2011-02-23T12:00:58Z</time></trkpt><trkpt lat="51.929109" lon="-1.842225"><ele>246.72</ele><time>2011-02-23T12:01:19Z</time></trkpt><trkpt lat="51.929068" lon="-1.842518"><ele>246.72</ele><time>2011-02-23T12:01:38Z</time></trkpt><trkpt lat="51.929023" lon="-1.842790"><ele>248.16</ele><time>2011-02-23T12:02:01Z</time></trkpt><trkpt lat="51.928969" lon="-1.843126"><ele>247.20</ele><time>2011-02-23T12:02:22Z</time></trkpt><trkpt lat="51.928936" lon="-1.843431"><ele>246.23</ele><time>2011-02-23T12:02:43Z</time></trkpt><trkpt lat="51.928896" lon="-1.843656"><ele>245.27</ele><time>2011-02-23T12:03:00Z</time></trkpt><trkpt lat="51.928854" lon="-1.843927"><ele>246.72</ele><time>2011-02-23T12:03:18Z</time></trkpt><trkpt lat="51.928793" lon="-1.844275"><ele>246.72</ele><time>2011-02-23T12:03:42Z</time></trkpt><trkpt lat="51.928742" lon="-1.844524"><ele>245.75</ele><time>2011-02-23T12:03:57Z</time></trkpt><trkpt lat="51.928682" lon="-1.844796"><ele>244.79</ele><time>2011-02-23T12:04:14Z</time></trkpt><trkpt lat="51.928617" lon="-1.845088"><ele>244.31</ele><time>2011-02-23T12:04:32Z</time></trkpt><trkpt lat="51.928595" lon="-1.845182"><ele>243.35</ele><time>2011-02-23T12:04:38Z</time></trkpt><trkpt lat="51.928562" lon="-1.845379"><ele>239.99</ele><time>2011-02-23T12:04:52Z</time></trkpt><trkpt lat="51.928509" lon="-1.845639"><ele>238.06</ele><time>2011-02-23T12:05:07Z</time></trkpt><trkpt lat="51.928450" lon="-1.845874"><ele>239.99</ele><time>2011-02-23T12:05:22Z</time></trkpt><trkpt lat="51.928416" lon="-1.846057"><ele>241.43</ele><time>2011-02-23T12:05:34Z</time></trkpt><trkpt lat="51.928412" lon="-1.846106"><ele>241.43</ele><time>2011-02-23T12:05:37Z</time></trkpt><trkpt lat="51.928317" lon="-1.846368"><ele>241.91</ele><time>2011-02-23T12:05:55Z</time></trkpt><trkpt lat="51.928277" lon="-1.846617"><ele>241.43</ele><time>2011-02-23T12:06:11Z</time></trkpt><trkpt lat="51.928207" lon="-1.846866"><ele>239.02</ele><time>2011-02-23T12:06:31Z</time></trkpt><trkpt lat="51.928178" lon="-1.846981"><ele>237.58</ele><time>2011-02-23T12:06:38Z</time></trkpt><trkpt lat="51.928133" lon="-1.847231"><ele>236.14</ele><time>2011-02-23T12:06:55Z</time></trkpt><trkpt lat="51.928126" lon="-1.847537"><ele>231.33</ele><time>2011-02-23T12:07:14Z</time></trkpt><trkpt lat="51.928074" lon="-1.847790"><ele>227.97</ele><time>2011-02-23T12:07:32Z</time></trkpt><trkpt lat="51.928073" lon="-1.848026"><ele>225.57</ele><time>2011-02-23T12:07:44Z</time></trkpt><trkpt lat="51.928059" lon="-1.848266"><ele>226.53</ele><time>2011-02-23T12:08:00Z</time></trkpt><trkpt lat="51.928038" lon="-1.848425"><ele>227.49</ele><time>2011-02-23T12:08:13Z</time></trkpt><trkpt lat="51.927997" lon="-1.848645"><ele>230.85</ele><time>2011-02-23T12:08:28Z</time></trkpt><trkpt lat="51.927988" lon="-1.848705"><ele>230.85</ele><time>2011-02-23T12:08:32Z</time></trkpt><trkpt lat="51.927940" lon="-1.848836"><ele>228.93</ele><time>2011-02-23T12:08:42Z</time></trkpt><trkpt lat="51.927904" lon="-1.849058"><ele>227.97</ele><time>2011-02-23T12:08:57Z</time></trkpt><trkpt lat="51.927830" lon="-1.849336"><ele>221.72</ele><time>2011-02-23T12:09:17Z</time></trkpt><trkpt lat="51.927746" lon="-1.849548"><ele>221.24</ele><time>2011-02-23T12:09:33Z</time></trkpt><trkpt lat="51.927642" lon="-1.849747"><ele>222.20</ele><time>2011-02-23T12:09:50Z</time></trkpt><trkpt lat="51.927611" lon="-1.849897"><ele>220.28</ele><time>2011-02-23T12:10:03Z</time></trkpt><trkpt lat="51.927548" lon="-1.849962"><ele>218.84</ele><time>2011-02-23T12:10:18Z</time></trkpt><trkpt lat="51.927474" lon="-1.850126"><ele>217.40</ele><time>2011-02-23T12:10:33Z</time></trkpt><trkpt lat="51.927382" lon="-1.850286"><ele>216.91</ele><time>2011-02-23T12:10:46Z</time></trkpt><trkpt lat="51.927286" lon="-1.850500"><ele>214.03</ele><time>2011-02-23T12:11:03Z</time></trkpt><trkpt lat="51.927221" lon="-1.850664"><ele>214.03</ele><time>2011-02-23T12:11:14Z</time></trkpt><trkpt lat="51.927119" lon="-1.850959"><ele>213.55</ele><time>2011-02-23T12:11:33Z</time></trkpt><trkpt lat="51.927044" lon="-1.851268"><ele>212.59</ele><time>2011-02-23T12:11:52Z</time></trkpt><trkpt lat="51.926978" lon="-1.851587"><ele>210.19</ele><time>2011-02-23T12:12:10Z</time></trkpt><trkpt lat="51.926926" lon="-1.851836"><ele>208.26</ele><time>2011-02-23T12:12:26Z</time></trkpt><trkpt lat="51.926854" lon="-1.852138"><ele>208.26</ele><time>2011-02-23T12:12:44Z</time></trkpt><trkpt lat="51.926763" lon="-1.852466"><ele>206.82</ele><time>2011-02-23T12:13:02Z</time></trkpt><trkpt lat="51.926636" lon="-1.852718"><ele>202.98</ele><time>2011-02-23T12:13:22Z</time></trkpt><trkpt lat="51.926460" lon="-1.852941"><ele>201.05</ele><time>2011-02-23T12:13:41Z</time></trkpt><trkpt lat="51.926392" lon="-1.853073"><ele>203.46</ele><time>2011-02-23T12:13:50Z</time></trkpt><trkpt lat="51.926382" lon="-1.853211"><ele>203.46</ele><time>2011-02-23T12:13:59Z</time></trkpt><trkpt lat="51.926464" lon="-1.853381"><ele>200.09</ele><time>2011-02-23T12:14:14Z</time></trkpt><trkpt lat="51.926518" lon="-1.853440"><ele>198.17</ele><time>2011-02-23T12:14:21Z</time></trkpt><trkpt lat="51.926677" lon="-1.853559"><ele>193.36</ele><time>2011-02-23T12:14:39Z</time></trkpt><trkpt lat="51.926694" lon="-1.853572"><ele>192.88</ele><time>2011-02-23T12:14:41Z</time></trkpt><trkpt lat="51.926831" lon="-1.853611"><ele>189.52</ele><time>2011-02-23T12:14:55Z</time></trkpt><trkpt lat="51.926922" lon="-1.853629"><ele>189.52</ele><time>2011-02-23T12:15:04Z</time></trkpt><trkpt lat="51.927091" lon="-1.853677"><ele>184.23</ele><time>2011-02-23T12:15:24Z</time></trkpt><trkpt lat="51.927284" lon="-1.853721"><ele>181.83</ele><time>2011-02-23T12:15:44Z</time></trkpt><trkpt lat="51.927449" lon="-1.853740"><ele>179.42</ele><time>2011-02-23T12:16:03Z</time></trkpt><trkpt lat="51.927532" lon="-1.853773"><ele>179.42</ele><time>2011-02-23T12:16:11Z</time></trkpt><trkpt lat="51.927557" lon="-1.853975"><ele>181.35</ele><time>2011-02-23T12:16:31Z</time></trkpt><trkpt lat="51.927548" lon="-1.854006"><ele>181.35</ele><time>2011-02-23T12:16:34Z</time></trkpt><trkpt lat="51.927485" lon="-1.854216"><ele>177.98</ele><time>2011-02-23T12:16:51Z</time></trkpt><trkpt lat="51.927488" lon="-1.854277"><ele>176.54</ele><time>2011-02-23T12:16:55Z</time></trkpt><trkpt lat="51.927420" lon="-1.854501"><ele>171.73</ele><time>2011-02-23T12:17:12Z</time></trkpt><trkpt lat="51.927410" lon="-1.854585"><ele>170.77</ele><time>2011-02-23T12:17:28Z</time></trkpt><trkpt lat="51.927422" lon="-1.854601"><ele>171.25</ele><time>2011-02-23T12:17:41Z</time></trkpt><trkpt lat="51.927383" lon="-1.854718"><ele>170.29</ele><time>2011-02-23T12:17:54Z</time></trkpt><trkpt lat="51.927342" lon="-1.854906"><ele>170.77</ele><time>2011-02-23T12:18:09Z</time></trkpt><trkpt lat="51.927352" lon="-1.855039"><ele>171.73</ele><time>2011-02-23T12:18:24Z</time></trkpt><trkpt lat="51.927360" lon="-1.855125"><ele>172.69</ele><time>2011-02-23T12:18:31Z</time></trkpt><trkpt lat="51.927429" lon="-1.855349"><ele>175.58</ele><time>2011-02-23T12:18:49Z</time></trkpt><trkpt lat="51.927485" lon="-1.855542"><ele>175.10</ele><time>2011-02-23T12:19:04Z</time></trkpt><trkpt lat="51.927491" lon="-1.855713"><ele>174.14</ele><time>2011-02-23T12:19:14Z</time></trkpt><trkpt lat="51.927373" lon="-1.855879"><ele>172.21</ele><time>2011-02-23T12:19:32Z</time></trkpt><trkpt lat="51.927256" lon="-1.856012"><ele>175.10</ele><time>2011-02-23T12:19:46Z</time></trkpt><trkpt lat="51.927185" lon="-1.856002"><ele>174.62</ele><time>2011-02-23T12:19:56Z</time></trkpt><trkpt lat="51.927127" lon="-1.856113"><ele>175.10</ele><time>2011-02-23T12:20:04Z</time></trkpt><trkpt lat="51.927001" lon="-1.856190"><ele>174.62</ele><time>2011-02-23T12:20:20Z</time></trkpt><trkpt lat="51.927007" lon="-1.856197"><ele>173.66</ele><time>2011-02-23T12:20:25Z</time></trkpt><trkpt lat="51.926815" lon="-1.856322"><ele>174.62</ele><time>2011-02-23T12:20:42Z</time></trkpt><trkpt lat="51.926686" lon="-1.856413"><ele>174.62</ele><time>2011-02-23T12:20:55Z</time></trkpt><trkpt lat="51.926573" lon="-1.856463"><ele>175.10</ele><time>2011-02-23T12:21:08Z</time></trkpt><trkpt lat="51.926469" lon="-1.856541"><ele>175.58</ele><time>2011-02-23T12:21:22Z</time></trkpt><trkpt lat="51.926417" lon="-1.856610"><ele>175.10</ele><time>2011-02-23T12:21:38Z</time></trkpt><trkpt lat="51.926338" lon="-1.856699"><ele>176.06</ele><time>2011-02-23T12:21:47Z</time></trkpt><trkpt lat="51.926292" lon="-1.857010"><ele>176.06</ele><time>2011-02-23T12:22:03Z</time></trkpt><trkpt lat="51.926227" lon="-1.857335"><ele>178.94</ele><time>2011-02-23T12:22:22Z</time></trkpt><trkpt lat="51.926089" lon="-1.857496"><ele>178.46</ele><time>2011-02-23T12:22:40Z</time></trkpt><trkpt lat="51.925933" lon="-1.857645"><ele>177.02</ele><time>2011-02-23T12:23:00Z</time></trkpt><trkpt lat="51.925779" lon="-1.857788"><ele>177.02</ele><time>2011-02-23T12:23:19Z</time></trkpt><trkpt lat="51.925678" lon="-1.857925"><ele>177.98</ele><time>2011-02-23T12:23:31Z</time></trkpt><trkpt lat="51.925642" lon="-1.857960"><ele>177.02</ele><time>2011-02-23T12:23:42Z</time></trkpt><trkpt lat="51.925639" lon="-1.857968"><ele>176.54</ele><time>2011-02-23T12:23:44Z</time></trkpt><trkpt lat="51.925485" lon="-1.858102"><ele>177.50</ele><time>2011-02-23T12:24:02Z</time></trkpt><trkpt lat="51.925451" lon="-1.858203"><ele>178.94</ele><time>2011-02-23T12:24:08Z</time></trkpt><trkpt lat="51.925341" lon="-1.858321"><ele>178.94</ele><time>2011-02-23T12:24:23Z</time></trkpt><trkpt lat="51.925350" lon="-1.858334"><ele>178.46</ele><time>2011-02-23T12:24:31Z</time></trkpt><trkpt lat="51.925241" lon="-1.858294"><ele>177.50</ele><time>2011-02-23T12:24:43Z</time></trkpt><trkpt lat="51.925213" lon="-1.858224"><ele>177.02</ele><time>2011-02-23T12:24:50Z</time></trkpt><trkpt lat="51.925173" lon="-1.858200"><ele>176.06</ele><time>2011-02-23T12:24:54Z</time></trkpt><trkpt lat="51.924990" lon="-1.858273"><ele>175.10</ele><time>2011-02-23T12:25:09Z</time></trkpt><trkpt lat="51.924890" lon="-1.858315"><ele>174.62</ele><time>2011-02-23T12:25:28Z</time></trkpt><trkpt lat="51.924891" lon="-1.858309"><ele>174.62</ele><time>2011-02-23T12:25:48Z</time></trkpt><trkpt lat="51.924868" lon="-1.858328"><ele>174.14</ele><time>2011-02-23T12:26:02Z</time></trkpt><trkpt lat="51.924851" lon="-1.858325"><ele>174.62</ele><time>2011-02-23T12:26:20Z</time></trkpt><trkpt lat="51.924838" lon="-1.858332"><ele>174.14</ele><time>2011-02-23T12:26:22Z</time></trkpt><trkpt lat="51.924690" lon="-1.858418"><ele>173.66</ele><time>2011-02-23T12:26:38Z</time></trkpt><trkpt lat="51.924622" lon="-1.858440"><ele>173.17</ele><time>2011-02-23T12:26:53Z</time></trkpt><trkpt lat="51.924611" lon="-1.858424"><ele>172.69</ele><time>2011-02-23T12:27:28Z</time></trkpt><trkpt lat="51.924577" lon="-1.858436"><ele>175.10</ele><time>2011-02-23T12:27:47Z</time></trkpt><trkpt lat="51.924503" lon="-1.858753"><ele>174.62</ele><time>2011-02-23T12:28:04Z</time></trkpt><trkpt lat="51.924423" lon="-1.859017"><ele>175.10</ele><time>2011-02-23T12:28:20Z</time></trkpt><trkpt lat="51.924348" lon="-1.859312"><ele>175.58</ele><time>2011-02-23T12:28:38Z</time></trkpt><trkpt lat="51.924269" lon="-1.859665"><ele>175.58</ele><time>2011-02-23T12:28:59Z</time></trkpt><trkpt lat="51.924202" lon="-1.859942"><ele>175.58</ele><time>2011-02-23T12:29:16Z</time></trkpt><trkpt lat="51.924148" lon="-1.860218"><ele>175.10</ele><time>2011-02-23T12:29:34Z</time></trkpt><trkpt lat="51.924077" lon="-1.860497"><ele>175.58</ele><time>2011-02-23T12:29:51Z</time></trkpt><trkpt lat="51.924036" lon="-1.860719"><ele>175.10</ele><time>2011-02-23T12:30:06Z</time></trkpt><trkpt lat="51.924004" lon="-1.860902"><ele>176.06</ele><time>2011-02-23T12:30:17Z</time></trkpt><trkpt lat="51.923948" lon="-1.861264"><ele>173.66</ele><time>2011-02-23T12:30:38Z</time></trkpt><trkpt lat="51.923876" lon="-1.861596"><ele>173.66</ele><time>2011-02-23T12:30:58Z</time></trkpt><trkpt lat="51.923793" lon="-1.861887"><ele>172.69</ele><time>2011-02-23T12:31:17Z</time></trkpt><trkpt lat="51.923769" lon="-1.862054"><ele>172.21</ele><time>2011-02-23T12:31:31Z</time></trkpt><trkpt lat="51.923780" lon="-1.862085"><ele>172.69</ele><time>2011-02-23T12:32:40Z</time></trkpt><trkpt lat="51.923779" lon="-1.862129"><ele>171.73</ele><time>2011-02-23T12:33:01Z</time></trkpt><trkpt lat="51.923724" lon="-1.862256"><ele>166.93</ele><time>2011-02-23T12:33:16Z</time></trkpt><trkpt lat="51.923628" lon="-1.862386"><ele>163.08</ele><time>2011-02-23T12:33:36Z</time></trkpt><trkpt lat="51.923618" lon="-1.862410"><ele>163.08</ele><time>2011-02-23T12:33:40Z</time></trkpt><trkpt lat="51.923560" lon="-1.862507"><ele>164.04</ele><time>2011-02-23T12:33:53Z</time></trkpt><trkpt lat="51.923559" lon="-1.862476"><ele>165.48</ele><time>2011-02-23T12:34:07Z</time></trkpt><trkpt lat="51.923519" lon="-1.862521"><ele>166.93</ele><time>2011-02-23T12:34:18Z</time></trkpt><trkpt lat="51.923428" lon="-1.862745"><ele>166.93</ele><time>2011-02-23T12:34:33Z</time></trkpt><trkpt lat="51.923345" lon="-1.862900"><ele>166.45</ele><time>2011-02-23T12:34:48Z</time></trkpt><trkpt lat="51.923294" lon="-1.863079"><ele>166.45</ele><time>2011-02-23T12:35:05Z</time></trkpt><trkpt lat="51.923253" lon="-1.863267"><ele>167.89</ele><time>2011-02-23T12:35:20Z</time></trkpt><trkpt lat="51.923191" lon="-1.863459"><ele>172.69</ele><time>2011-02-23T12:35:31Z</time></trkpt><trkpt lat="51.923142" lon="-1.863547"><ele>172.21</ele><time>2011-02-23T12:35:42Z</time></trkpt><trkpt lat="51.923110" lon="-1.863576"><ele>170.77</ele><time>2011-02-23T12:35:46Z</time></trkpt><trkpt lat="51.923038" lon="-1.863718"><ele>172.21</ele><time>2011-02-23T12:35:59Z</time></trkpt><trkpt lat="51.923043" lon="-1.863735"><ele>172.21</ele><time>2011-02-23T12:36:04Z</time></trkpt><trkpt lat="51.922991" lon="-1.863794"><ele>172.21</ele><time>2011-02-23T12:36:18Z</time></trkpt><trkpt lat="51.922898" lon="-1.863851"><ele>171.73</ele><time>2011-02-23T12:36:34Z</time></trkpt><trkpt lat="51.922736" lon="-1.863841"><ele>173.17</ele><time>2011-02-23T12:36:51Z</time></trkpt><trkpt lat="51.922608" lon="-1.863882"><ele>175.10</ele><time>2011-02-23T12:37:07Z</time></trkpt><trkpt lat="51.922451" lon="-1.863909"><ele>177.50</ele><time>2011-02-23T12:37:22Z</time></trkpt><trkpt lat="51.922320" lon="-1.863967"><ele>178.46</ele><time>2011-02-23T12:37:36Z</time></trkpt><trkpt lat="51.922177" lon="-1.864007"><ele>179.42</ele><time>2011-02-23T12:37:51Z</time></trkpt><trkpt lat="51.922028" lon="-1.864030"><ele>179.90</ele><time>2011-02-23T12:38:06Z</time></trkpt><trkpt lat="51.921884" lon="-1.864084"><ele>181.83</ele><time>2011-02-23T12:38:19Z</time></trkpt><trkpt lat="51.921732" lon="-1.864158"><ele>181.35</ele><time>2011-02-23T12:38:36Z</time></trkpt><trkpt lat="51.921573" lon="-1.864239"><ele>181.35</ele><time>2011-02-23T12:38:52Z</time></trkpt><trkpt lat="51.921529" lon="-1.864237"><ele>181.83</ele><time>2011-02-23T12:38:56Z</time></trkpt><trkpt lat="51.921462" lon="-1.864205"><ele>184.23</ele><time>2011-02-23T12:39:06Z</time></trkpt><trkpt lat="51.921483" lon="-1.864103"><ele>181.83</ele><time>2011-02-23T12:39:19Z</time></trkpt><trkpt lat="51.921414" lon="-1.863992"><ele>181.83</ele><time>2011-02-23T12:39:31Z</time></trkpt><trkpt lat="51.921336" lon="-1.863749"><ele>182.79</ele><time>2011-02-23T12:39:49Z</time></trkpt><trkpt lat="51.921306" lon="-1.863431"><ele>180.87</ele><time>2011-02-23T12:40:07Z</time></trkpt><trkpt lat="51.921306" lon="-1.863417"><ele>180.38</ele><time>2011-02-23T12:40:08Z</time></trkpt><trkpt lat="51.921315" lon="-1.863250"><ele>177.50</ele><time>2011-02-23T12:40:24Z</time></trkpt></trkseg></trk></gpx>